D/T METAR WX W/DIR W/SPE G/SPE TEMP DEWP
9/12/19 12:20 EGPF 091220Z AUTO 27005KT 220V310 9999 NCD 06/01 Q1015 W (270°) 5.8mph 6°C 1°C
9/12/19 11:50 EGPF 091150Z AUTO 29008KT 9999 NCD 06/01 Q1014 WNW (290°) 9.2mph 6°C 1°C
9/12/19 11:20 EGPF 091120Z AUTO 29008KT 9999 NCD 06/01 Q1013 WNW (290°) 9.2mph 6°C 1°C
9/12/19 10:50 EGPF 091050Z AUTO 29007KT 270V330 9999 NCD 05/01 Q1013 WNW (290°) 8.1mph 5°C 1°C
9/12/19 10:20 EGPF 091020Z AUTO 23007KT 9999 NCD 04/01 Q1012 SW (230°) 8.1mph 4°C 1°C
9/12/19 09:50 EGPF 090950Z AUTO 29008KT 250V320 9999 NCD 05/01 Q1012 WNW (290°) 9.2mph 5°C 1°C
9/12/19 09:20 EGPF 090920Z AUTO 30010KT 9999 NCD 04/01 Q1011 WNW (300°) 11.5mph 4°C 1°C
9/12/19 08:50 EGPF 090850Z AUTO 30009KT 9999 NCD 04/01 Q1010 WNW (300°) 10.4mph 4°C 1°C
9/12/19 08:20 EGPF 090820Z AUTO 29008KT 9999 NCD 03/01 Q1008 WNW (290°) 9.2mph 3°C 1°C
9/12/19 07:50 EGPF 090750Z AUTO 28004KT 250V320 9999 FEW030 SCT036 04/01 Q1007 W (280°) 4.6mph 4°C 1°C
9/12/19 07:20 EGPF 090720Z AUTO VRB03KT 9999 BKN033 BKN041 05/01 Q1006 N (0°) 3.5mph 5°C 1°C
9/12/19 06:50 EGPF 090650Z AUTO 34006KT 9999 FEW031 SCT037 05/01 Q1005 NNW (340°) 6.9mph 5°C 1°C
9/12/19 06:20 EGPF 090620Z AUTO 28009KT 9999 //////TCU 04/02 Q1004 W (280°) 10.4mph 4°C 2°C
9/12/19 05:50 EGPF 090550Z AUTO 30008KT 9999 //////TCU 05/02 Q1003 WNW (300°) 9.2mph 5°C 2°C
9/12/19 05:20 EGPF 090520Z AUTO 30009KT 9999 NCD 05/02 Q1001 WNW (300°) 10.4mph 5°C 2°C
9/12/19 04:50 EGPF 090450Z AUTO 29009KT 9999 NCD 04/03 Q1000 WNW (290°) 10.4mph 4°C 3°C
9/12/19 04:20 EGPF 090420Z AUTO 29007KT 9999 NCD 04/02 Q0999 WNW (290°) 8.1mph 4°C 2°C
9/12/19 03:50 EGPF 090350Z AUTO 29007KT 9999 FEW035 05/03 Q0997 WNW (290°) 8.1mph 5°C 3°C
9/12/19 03:20 EGPF 090320Z AUTO 30007KT 9999 NCD 05/03 Q0996 WNW (300°) 8.1mph 5°C 3°C
9/12/19 02:50 EGPF 090250Z AUTO 30009KT 9999 -RA FEW027/// SCT038/// //////TCU 06/04 Q0995 -RA WNW (300°) 10.4mph 6°C 4°C
9/12/19 02:20 EGPF 090220Z AUTO 28008KT 9999 NCD 05/04 Q0993 W (280°) 9.2mph 5°C 4°C
9/12/19 01:50 EGPF 090150Z AUTO 28008KT 9999 NCD 06/03 Q0991 W (280°) 9.2mph 6°C 3°C
9/12/19 01:20 EGPF 090120Z AUTO 29009KT 9999 NCD 05/04 Q0990 WNW (290°) 10.4mph 5°C 4°C
9/12/19 00:50 EGPF 090050Z AUTO 25006KT 9999 NCD 05/03 Q0988 WSW (250°) 6.9mph 5°C 3°C
9/12/19 00:20 EGPF 090020Z AUTO 24005KT 9999 NCD 03/02 Q0987 WSW (240°) 5.8mph 3°C 2°C
8/12/19 23:50 EGPF 082350Z AUTO 25007KT 9999 NCD 04/03 Q0985 WSW (250°) 8.1mph 4°C 3°C
8/12/19 23:20 EGPF 082320Z AUTO 26006KT 9999 NCD 04/03 Q0984 W (260°) 6.9mph 4°C 3°C
8/12/19 22:50 EGPF 082250Z AUTO 25004KT 9999 FEW047/// //////TCU 03/02 Q0983 WSW (250°) 4.6mph 3°C 2°C
8/12/19 22:20 EGPF 082220Z AUTO 25006KT 9999 -RA FEW027/// BKN035/// //////TCU 04/04 Q0982 -RA WSW (250°) 6.9mph 4°C 4°C
8/12/19 21:20 EGPF 082120Z AUTO 30005KT 260V330 9999 -RA SCT020/// BKN033/// BKN045/// //////TCU 05/04 Q0980 -RA WNW (300°) 5.8mph 5°C 4°C
8/12/19 20:50 EGPF 082050Z AUTO 23017KT 9999 -RA BKN038/// //////CB 06/05 Q0979 -RA SW (230°) 19.6mph 6°C 5°C
8/12/19 19:50 EGPF 081950Z 22013KT 9000 -RA SCT021CB BKN039 06/04 Q0979 RERA -RA SW (220°) 15.0mph 6°C 4°C
8/12/19 19:20 EGPF 081920Z AUTO 22016KT 9999 SCT027/// BKN032/// //////CB 06/04 Q0979 SW (220°) 18.4mph 6°C 4°C
8/12/19 18:20 EGPF 081820Z AUTO 22015KT 9999 -RA SCT032/// BKN043/// //////TCU 06/04 Q0978 -RA SW (220°) 17.3mph 6°C 4°C
8/12/19 17:50 EGPF 081750Z AUTO 22019KT 9999 -RA SCT021/// BKN028/// BKN032/// //////CB 05/04 Q0978 -RA SW (220°) 21.9mph 5°C 4°C
8/12/19 17:20 EGPF 081720Z AUTO 22018KT 9999 -RA SCT019/// SCT040/// //////CB 05/04 Q0978 -RA SW (220°) 20.7mph 5°C 4°C
8/12/19 16:50 EGPF 081650Z AUTO 23022KT 7000 -RA BKN016/// BKN023/// BKN028/// //////CB 05/04 Q0979 RERA -RA SW (230°) 25.3mph 5°C 4°C
8/12/19 16:20 EGPF 081620Z AUTO 23024G37KT 3900 RA SCT019/// BKN023/// OVC038/// //////CB 06/04 Q0979 RA SW (230°) 27.6mph 42.6mph 6°C 4°C
8/12/19 15:50 EGPF 081550Z AUTO 22024KT 9999 -RA SCT026/// BKN031/// BKN038/// //////TCU 06/04 Q0979 -RA SW (220°) 27.6mph 6°C 4°C
8/12/19 15:20 EGPF 081520Z AUTO 22021G31KT 9999 -RA SCT021/// BKN029/// OVC042/// //////CB 06/04 Q0979 RERA -RA SW (220°) 24.2mph 35.7mph 6°C 4°C
8/12/19 14:50 EGPF 081450Z AUTO 23022KT 7000 -RA FEW017/// SCT022/// BKN026/// //////TCU 06/04 Q0979 RERA -RA SW (230°) 25.3mph 6°C 4°C
8/12/19 13:50 EGPF 081350Z 23018KT 9999 -SHRA BKN016CB BKN025 06/04 Q0980 -SHRA SW (230°) 20.7mph 6°C 4°C
8/12/19 13:20 EGPF 081320Z 22023KT 9999 -SHRA FEW026CB SCT030 BKN039 06/04 Q0981 -SHRA SW (220°) 26.5mph 6°C 4°C
8/12/19 12:50 EGPF 081250Z AUTO 22022KT 9999 -RA FEW021/// BKN030/// BKN040/// //////CB 06/04 Q0981 RERA -RA SW (220°) 25.3mph 6°C 4°C
8/12/19 12:20 EGPF 081220Z AUTO 22025G36KT 9999 -RA SCT023/// BKN036/// //////TCU 06/04 Q0981 -RA SW (220°) 28.8mph 41.4mph 6°C 4°C
8/12/19 11:20 EGPF 081120Z AUTO 23017KT 9999 -RA FEW022/// SCT045/// //////CB 05/03 Q0982 -RA SW (230°) 19.6mph 5°C 3°C
8/12/19 10:50 EGPF 081050Z AUTO 22022G33KT 9999 -RA SCT030/// BKN037/// //////CB 07/04 Q0983 -RA SW (220°) 25.3mph 38.0mph 7°C 4°C
8/12/19 10:20 EGPF 081020Z AUTO 22019KT 9999 -RA SCT024/// BKN031/// OVC046/// //////TCU 07/04 Q0983 -RA SW (220°) 21.9mph 7°C 4°C